Time;durP1;ratioP1;P1;durP2;ratioP2;P2;SDS_P1;SDS_P2;PMS_P1;PMS_P2;Temp;Humidity;BMP_temperature;BMP_pressure;BME280_temperature;BME280_humidity;BME280_pressure;Samples;Min_cycle;Max_cycle;Signal;HPM_P1;HPM_P2
2022/09/18 00:02:20;;;;;;;8.27;2.15;;;11.30;99.90;;;;;;5092055;28;20400;-71
2022/09/18 00:04:45;;;;;;;11.35;1.52;;;11.30;99.90;;;;;;5092196;28;20635;-71
2022/09/18 00:07:11;;;;;;;10.73;2.00;;;11.30;99.90;;;;;;5092337;28;20044;-71
2022/09/18 00:09:37;;;;;;;6.35;1.80;;;11.30;99.90;;;;;;5092195;28;20093;-71
2022/09/18 00:12:03;;;;;;;9.07;1.55;;;11.30;99.90;;;;;;5092211;28;20404;-72
2022/09/18 00:14:28;;;;;;;6.85;1.52;;;11.30;99.90;;;;;;5091765;28;20040;-71
2022/09/18 00:16:54;;;;;;;6.18;1.70;;;11.40;99.90;;;;;;5092017;28;20480;-71
2022/09/18 00:19:20;;;;;;;8.45;1.42;;;11.40;99.90;;;;;;5090788;28;20096;-71
2022/09/18 00:21:48;;;;;;;12.02;2.15;;;11.30;99.90;;;;;;5073699;28;20036;-70
2022/09/18 00:24:16;;;;;;;5.55;1.33;;;11.30;99.90;;;;;;5091756;28;20036;-71
2022/09/18 00:26:42;;;;;;;9.30;1.65;;;11.30;99.90;;;;;;5091816;28;20044;-71
2022/09/18 00:29:09;;;;;;;5.60;1.50;;;11.30;99.90;;;;;;5091990;28;20067;-71
2022/09/18 00:31:35;;;;;;;10.02;2.28;;;11.30;99.90;;;;;;5091830;28;20431;-71
2022/09/18 00:34:06;;;;;;;8.73;2.00;;;11.30;99.90;;;;;;5091734;28;20043;-72
2022/09/18 00:36:32;;;;;;;7.15;1.77;;;11.30;99.90;;;;;;5092074;28;20126;-71
2022/09/18 00:38:58;;;;;;;8.85;2.15;;;11.30;99.90;;;;;;5091812;28;20120;-71
2022/09/18 00:41:36;;;;;;;7.65;2.15;;;11.20;99.90;;;;;;5091878;28;20111;-71
2022/09/18 00:44:32;;;;;;;10.82;1.80;;;11.30;99.90;;;;;;5091381;28;20067;-71
2022/09/18 00:47:11;;;;;;;9.05;1.98;;;11.30;99.90;;;;;;5091825;28;20032;-71
2022/09/18 00:49:54;;;;;;;11.85;2.28;;;11.20;99.90;;;;;;5091891;28;20044;-71
2022/09/18 00:52:22;;;;;;;11.55;2.03;;;11.20;99.90;;;;;;5091581;28;20040;-71
2022/09/18 00:54:53;;;;;;;11.43;1.90;;;11.20;99.90;;;;;;5090229;28;20044;-71
2022/09/18 00:57:23;;;;;;;8.10;1.88;;;11.20;99.90;;;;;;5091938;28;20040;-71
2022/09/18 00:59:50;;;;;;;12.48;1.85;;;11.20;99.90;;;;;;5091819;28;20407;-71
2022/09/18 01:02:16;;;;;;;13.80;2.08;;;11.20;99.90;;;;;;5090281;28;20492;-71
2022/09/18 01:04:41;;;;;;;10.50;1.95;;;11.20;99.90;;;;;;5091314;28;20044;-71
2022/09/18 01:07:30;;;;;;;11.05;2.10;;;11.20;99.90;;;;;;5091431;28;20531;-71
2022/09/18 01:10:02;;;;;;;8.75;1.88;;;11.20;99.90;;;;;;5091676;28;20404;-72
2022/09/18 01:12:57;;;;;;;6.03;1.90;;;11.20;99.90;;;;;;5090397;28;20046;-72
2022/09/18 01:16:04;;;;;;;10.35;2.00;;;11.30;99.90;;;;;;5091197;28;20035;-71
2022/09/18 01:19:00;;;;;;;14.02;2.42;;;11.30;99.90;;;;;;5048829;28;20041;-72
2022/09/18 01:21:56;;;;;;;10.65;1.83;;;11.30;99.90;;;;;;5048866;28;20045;-71
2022/09/18 01:24:33;;;;;;;8.63;2.13;;;11.30;99.90;;;;;;5048463;28;20051;-71
2022/09/18 01:27:03;;;;;;;7.93;2.05;;;11.30;99.90;;;;;;5031949;28;20052;-71
2022/09/18 01:29:49;;;;;;;13.07;2.10;;;11.30;99.90;;;;;;5048787;28;20041;-71
2022/09/18 01:32:21;;;;;;;9.80;2.22;;;11.30;99.90;;;;;;5048830;28;20041;-71
2022/09/18 01:35:20;;;;;;;11.73;1.95;;;11.30;99.90;;;;;;5050806;28;20044;-72
2022/09/18 01:37:57;;;;;;;17.00;3.05;;;11.40;99.90;;;;;;5052474;28;20048;-71
2022/09/18 01:40:28;;;;;;;10.23;1.98;;;11.40;99.90;;;;;;5052230;28;20056;-71
2022/09/18 01:42:57;;;;;;;12.90;2.08;;;11.40;99.90;;;;;;5052169;28;20076;-71
2022/09/18 01:45:27;;;;;;;10.70;2.63;;;11.40;99.90;;;;;;5051870;28;20049;-71
2022/09/18 01:48:00;;;;;;;7.53;2.33;;;11.40;99.90;;;;;;5052254;28;20505;-71
2022/09/18 01:50:29;;;;;;;13.38;1.83;;;11.50;99.90;;;;;;5052200;28;20040;-71
2022/09/18 01:53:24;;;;;;;9.68;1.90;;;11.50;99.90;;;;;;5081021;28;20048;-72
2022/09/18 01:56:00;;;;;;;13.10;1.90;;;11.50;99.90;;;;;;5088481;28;20087;-70
2022/09/18 01:58:27;;;;;;;13.98;2.08;;;11.50;99.90;;;;;;5093324;28;20039;-71
2022/09/18 02:00:57;;;;;;;10.00;1.73;;;11.50;99.90;;;;;;5094511;28;20072;-71
2022/09/18 02:03:30;;;;;;;13.63;2.13;;;11.50;99.90;;;;;;5094622;28;20059;-71
2022/09/18 02:06:01;;;;;;;;;;;11.50;99.90;;;;;;5094915;28;20052;-71
2022/09/18 02:08:49;;;;;;;12.20;2.35;;;11.50;99.90;;;;;;5093151;28;19916;-72
2022/09/18 02:11:17;;;;;;;11.85;2.15;;;11.50;99.90;;;;;;5093082;28;20043;-71
2022/09/18 02:14:06;;;;;;;8.75;2.28;;;11.50;99.90;;;;;;5092763;28;20040;-71
2022/09/18 02:16:58;;;;;;;6.30;2.10;;;11.50;99.90;;;;;;5094380;28;20032;-71
2022/09/18 02:19:53;;;;;;;9.70;1.83;;;11.60;99.90;;;;;;5089412;28;20055;-72
2022/09/18 02:22:21;;;;;;;7.65;1.95;;;11.60;99.90;;;;;;5092797;28;20051;-71
2022/09/18 02:24:49;;;;;;;10.85;1.85;;;11.60;99.90;;;;;;5092811;28;20118;-71
2022/09/18 02:27:16;;;;;;;16.17;2.08;;;11.60;99.90;;;;;;5093808;28;20415;-71
2022/09/18 02:29:43;;;;;;;7.32;2.15;;;11.60;99.90;;;;;;5092749;28;20048;-72
2022/09/18 02:32:09;;;;;;;12.65;1.83;;;11.60;99.90;;;;;;5092866;28;20511;-71
2022/09/18 02:34:34;;;;;;;10.63;2.00;;;11.60;99.90;;;;;;5093504;28;20040;-71
2022/09/18 02:37:19;;;;;;;9.18;1.70;;;11.60;99.90;;;;;;5092559;28;20123;-71
2022/09/18 02:40:13;;;;;;;17.15;1.83;;;11.60;99.90;;;;;;5092519;28;20093;-70
2022/09/18 02:42:58;;;;;;;8.75;1.85;;;11.60;99.90;;;;;;5093621;28;20404;-71
2022/09/18 02:45:47;;;;;;;5.50;1.65;;;11.60;99.90;;;;;;5093619;28;20123;-72
2022/09/18 02:48:28;;;;;;;7.15;1.85;;;11.60;99.90;;;;;;5093744;28;20044;-71
2022/09/18 02:51:17;;;;;;;9.00;1.75;;;11.60;99.90;;;;;;5093652;28;20028;-71
2022/09/18 02:53:49;;;;;;;8.57;2.03;;;11.60;99.90;;;;;;5092061;28;20040;-71
2022/09/18 02:56:32;;;;;;;7.90;1.77;;;11.60;99.90;;;;;;5092221;28;20040;-71
2022/09/18 02:59:04;;;;;;;8.77;2.10;;;11.60;99.90;;;;;;5092249;28;20567;-71
2022/09/18 03:01:32;;;;;;;11.38;1.50;;;11.70;99.90;;;;;;5093372;28;20068;-71
2022/09/18 03:04:08;;;;;;;11.30;2.10;;;11.70;99.90;;;;;;5091771;28;20100;-71
2022/09/18 03:06:34;;;;;;;13.27;1.90;;;11.70;99.90;;;;;;5091976;28;20040;-71
2022/09/18 03:08:59;;;;;;;9.38;2.08;;;11.60;99.90;;;;;;5093282;28;20415;-71
2022/09/18 03:11:25;;;;;;;12.25;1.98;;;11.70;99.90;;;;;;5092173;28;20377;-71
2022/09/18 03:13:51;;;;;;;7.97;1.95;;;11.70;99.90;;;;;;5091477;28;20036;-71
2022/09/18 03:16:16;;;;;;;10.45;1.98;;;11.70;99.90;;;;;;5093091;28;20499;-72
2022/09/18 03:18:42;;;;;;;11.90;1.90;;;11.70;99.90;;;;;;5092036;28;20055;-71
2022/09/18 03:21:08;;;;;;;6.30;1.70;;;11.70;99.90;;;;;;5091786;28;20044;-71
2022/09/18 03:23:36;;;;;;;6.65;1.63;;;11.70;99.90;;;;;;5092939;28;20412;-71
2022/09/18 03:26:02;;;;;;;7.97;1.80;;;11.70;99.90;;;;;;5092450;28;20043;-70
2022/09/18 03:28:30;;;;;;;8.25;1.60;;;11.70;99.90;;;;;;5092839;28;20036;-71
2022/09/18 03:30:55;;;;;;;9.00;1.42;;;11.70;99.90;;;;;;5093104;28;20028;-71
2022/09/18 03:33:21;;;;;;;6.13;1.95;;;11.70;99.90;;;;;;5092868;28;20437;-71
2022/09/18 03:35:46;;;;;;;3.88;1.50;;;11.70;99.90;;;;;;5091229;28;20047;-71
2022/09/18 03:38:12;;;;;;;9.27;1.83;;;11.70;99.90;;;;;;5091488;28;20458;-71
2022/09/18 03:40:37;;;;;;;6.18;1.45;;;11.70;99.90;;;;;;5092509;28;20543;-71
2022/09/18 03:43:03;;;;;;;10.95;1.90;;;11.70;99.90;;;;;;5092508;28;20119;-71
2022/09/18 03:45:29;;;;;;;10.50;1.63;;;11.70;99.90;;;;;;5092508;28;20032;-71
2022/09/18 03:47:54;;;;;;;10.25;1.77;;;11.70;99.90;;;;;;5092503;28;20036;-70
2022/09/18 03:50:20;;;;;;;8.73;1.85;;;11.70;99.90;;;;;;5092564;28;20032;-71
2022/09/18 03:52:47;;;;;;;8.27;1.45;;;11.70;99.90;;;;;;5092527;28;20028;-71
2022/09/18 03:55:12;;;;;;;8.40;1.58;;;11.70;99.90;;;;;;5092130;28;20040;-71
2022/09/18 03:57:38;;;;;;;6.85;1.70;;;11.70;99.90;;;;;;5090622;28;20547;-71
2022/09/18 04:00:04;;;;;;;6.05;1.67;;;11.70;99.90;;;;;;5091034;28;20040;-72
2022/09/18 04:02:29;;;;;;;5.95;1.67;;;11.70;99.90;;;;;;5091139;28;20040;-71
2022/09/18 04:04:55;;;;;;;6.50;1.65;;;11.70;99.90;;;;;;5091973;28;20092;-71
2022/09/18 04:07:21;;;;;;;6.50;1.55;;;11.70;99.90;;;;;;5092220;28;20079;-71
2022/09/18 04:09:47;;;;;;;7.97;1.40;;;11.70;99.90;;;;;;5092101;28;20492;-71
2022/09/18 04:12:12;;;;;;;7.25;1.55;;;11.80;99.90;;;;;;5092132;28;20078;-71
2022/09/18 04:14:38;;;;;;;7.55;1.63;;;11.70;99.90;;;;;;5092012;28;20036;-71
2022/09/18 04:17:03;;;;;;;9.50;1.88;;;11.80;99.90;;;;;;5092274;28;20040;-71
2022/09/18 04:19:29;;;;;;;5.97;1.75;;;11.80;99.90;;;;;;5092190;28;20036;-71
2022/09/18 04:21:54;;;;;;;5.03;1.30;;;11.80;99.90;;;;;;5092151;28;20488;-71
2022/09/18 04:24:20;;;;;;;9.05;1.58;;;11.70;99.90;;;;;;5091560;28;20097;-71
2022/09/18 04:26:45;;;;;;;7.68;1.63;;;11.80;99.90;;;;;;5091802;28;20040;-70
2022/09/18 04:29:11;;;;;;;5.10;1.42;;;11.80;99.90;;;;;;5091927;28;20539;-71
2022/09/18 04:31:36;;;;;;;10.95;2.10;;;11.80;99.90;;;;;;5092089;28;20128;-71
2022/09/18 04:34:02;;;;;;;5.35;1.33;;;11.70;99.90;;;;;;5090297;28;20042;-71
2022/09/18 04:36:27;;;;;;;7.65;1.75;;;11.80;99.90;;;;;;5090643;28;20044;-70
2022/09/18 04:38:53;;;;;;;7.80;1.63;;;11.70;99.90;;;;;;5091871;28;20040;-71
2022/09/18 04:41:19;;;;;;;8.70;1.25;;;11.70;99.90;;;;;;5091780;28;20047;-71
2022/09/18 04:43:44;;;;;;;7.72;1.67;;;11.70;99.90;;;;;;5090496;28;20040;-73
2022/09/18 04:46:10;;;;;;;5.90;1.75;;;11.70;99.90;;;;;;5091908;28;20127;-70
2022/09/18 04:48:35;;;;;;;13.07;1.58;;;11.70;99.90;;;;;;5091963;28;20100;-71
2022/09/18 04:51:01;;;;;;;11.95;1.60;;;11.70;99.90;;;;;;5090554;28;20046;-71
2022/09/18 04:53:27;;;;;;;8.23;1.35;;;11.70;99.90;;;;;;5091685;28;20450;-72
2022/09/18 04:55:52;;;;;;;7.60;1.58;;;11.70;99.90;;;;;;5091390;28;20499;-72
2022/09/18 04:58:19;;;;;;;8.43;1.60;;;11.70;99.90;;;;;;5091650;28;20047;-71
2022/09/18 05:00:49;;;;;;;10.20;1.63;;;11.70;99.90;;;;;;5090414;28;20086;-71
2022/09/18 05:03:14;;;;;;;7.22;1.40;;;11.70;99.90;;;;;;5091683;28;20127;-71
2022/09/18 05:05:40;;;;;;;5.28;1.30;;;11.70;99.90;;;;;;5091504;28;20115;-71
2022/09/18 05:08:06;;;;;;;4.88;1.42;;;11.70;99.90;;;;;;5073329;28;20515;-71
2022/09/18 05:10:31;;;;;;;10.10;1.52;;;11.70;99.90;;;;;;5095186;28;20046;-71
2022/09/18 05:12:57;;;;;;;5.47;1.00;;;11.70;99.90;;;;;;5095629;28;20032;-72
2022/09/18 05:15:23;;;;;;;6.53;1.83;;;11.70;99.90;;;;;;5093892;28;20064;-71
2022/09/18 05:17:56;;;;;;;4.78;1.40;;;11.70;99.90;;;;;;5095579;28;20032;-71
2022/09/18 05:20:22;;;;;;;8.63;1.58;;;11.70;99.90;;;;;;5095464;28;20048;-71
2022/09/18 05:22:47;;;;;;;5.35;1.58;;;11.70;99.90;;;;;;5093991;28;20035;-71
2022/09/18 05:25:13;;;;;;;5.43;1.25;;;11.70;99.90;;;;;;5094945;28;20040;-72
2022/09/18 05:27:38;;;;;;;6.28;1.65;;;11.70;99.90;;;;;;5093848;28;20040;-70
2022/09/18 05:30:05;;;;;;;6.30;1.42;;;11.70;99.90;;;;;;5093904;28;20133;-71
2022/09/18 05:32:30;;;;;;;4.57;1.23;;;11.70;99.90;;;;;;5091892;28;20067;-71
2022/09/18 05:34:56;;;;;;;7.60;1.20;;;11.70;99.90;;;;;;5094343;28;20036;-71
2022/09/18 05:37:21;;;;;;;4.50;1.30;;;11.70;99.90;;;;;;5093890;28;20047;-72
2022/09/18 05:39:47;;;;;;;4.28;1.00;;;11.70;99.90;;;;;;5093776;28;20043;-71
2022/09/18 05:42:12;;;;;;;7.80;2.22;;;11.70;99.90;;;;;;5095181;28;20123;-71
2022/09/18 05:44:38;;;;;;;14.20;1.83;;;11.80;99.90;;;;;;5094138;28;20067;-72
2022/09/18 05:47:04;;;;;;;7.15;1.42;;;11.70;99.90;;;;;;5094359;28;20515;-74
2022/09/18 05:49:29;;;;;;;6.90;1.30;;;11.70;99.90;;;;;;5094820;28;20104;-73
2022/09/18 05:51:55;;;;;;;4.32;1.50;;;11.70;99.90;;;;;;5102429;28;20039;-71
2022/09/18 05:54:20;;;;;;;5.47;1.73;;;11.70;99.90;;;;;;5113209;28;20450;-72
2022/09/18 05:56:46;;;;;;;3.55;1.10;;;11.70;99.90;;;;;;5113652;28;20039;-71
2022/09/18 05:59:12;;;;;;;9.40;1.30;;;11.70;99.90;;;;;;5113871;28;20054;-73
2022/09/18 06:01:38;;;;;;;3.97;1.38;;;11.70;99.90;;;;;;5113827;28;20051;-73
2022/09/18 06:04:04;;;;;;;4.38;1.63;;;11.70;99.90;;;;;;5114505;28;20115;-72
2022/09/18 06:06:30;;;;;;;5.60;1.23;;;11.70;99.90;;;;;;5114753;28;20118;-72
2022/09/18 06:08:56;;;;;;;7.28;1.50;;;11.70;99.90;;;;;;5113587;28;20481;-72
2022/09/18 06:11:21;;;;;;;4.20;1.20;;;11.70;99.90;;;;;;5113626;28;20074;-72
2022/09/18 06:13:48;;;;;;;7.50;1.10;;;11.70;99.90;;;;;;5113257;28;20032;-72
2022/09/18 06:16:14;;;;;;;8.07;1.30;;;11.70;99.90;;;;;;5113411;28;20039;-72
2022/09/18 06:18:40;;;;;;;3.92;1.45;;;11.70;99.90;;;;;;5113189;28;20032;-73
2022/09/18 06:21:06;;;;;;;8.48;1.38;;;11.70;99.90;;;;;;5112966;28;20497;-72
2022/09/18 06:23:32;;;;;;;7.75;1.67;;;11.70;99.90;;;;;;5112939;28;20050;-71
2022/09/18 06:25:58;;;;;;;5.07;1.65;;;11.70;99.90;;;;;;5112780;28;20401;-71
2022/09/18 06:28:24;;;;;;;10.57;1.50;;;11.80;99.90;;;;;;5113076;28;20410;-72
2022/09/18 06:30:49;;;;;;;2.92;1.23;;;11.70;99.90;;;;;;5113336;28;20038;-72
2022/09/18 06:33:15;;;;;;;7.68;1.52;;;11.80;99.90;;;;;;5113589;28;20095;-72
2022/09/18 06:35:41;;;;;;;7.18;1.60;;;11.80;99.90;;;;;;5114138;28;20043;-73
2022/09/18 06:38:08;;;;;;;4.28;1.17;;;11.80;99.90;;;;;;5112934;28;20043;-73
2022/09/18 06:40:34;;;;;;;3.35;1.17;;;11.80;99.90;;;;;;5112756;28;20044;-72
2022/09/18 06:43:01;;;;;;;3.72;1.40;;;11.80;99.90;;;;;;5112944;28;20047;-73
2022/09/18 06:45:29;;;;;;;5.78;1.50;;;11.70;99.90;;;;;;5112450;28;20071;-73
2022/09/18 06:47:59;;;;;;;4.55;1.50;;;11.80;99.90;;;;;;5112536;28;20051;-73
2022/09/18 06:50:24;;;;;;;4.95;1.30;;;11.80;99.90;;;;;;5112662;28;20039;-72
2022/09/18 06:52:50;;;;;;;5.55;1.35;;;11.80;99.90;;;;;;5112578;28;20194;-72
2022/09/18 06:55:17;;;;;;;4.88;1.27;;;11.80;99.90;;;;;;5112260;28;20440;-72
2022/09/18 06:57:52;;;;;;;3.20;1.17;;;11.80;99.90;;;;;;5112748;28;20071;-72
2022/09/18 07:00:18;;;;;;;3.22;1.40;;;11.80;99.90;;;;;;5112452;28;20075;-73
2022/09/18 07:02:43;;;;;;;5.70;1.77;;;11.80;99.90;;;;;;5113782;28;20518;-73
2022/09/18 07:05:09;;;;;;;5.75;1.60;;;11.80;99.90;;;;;;5113532;28;20039;-72
2022/09/18 07:07:34;;;;;;;6.68;1.70;;;11.80;99.90;;;;;;5112180;28;20043;-72
2022/09/18 07:10:00;;;;;;;5.40;1.30;;;11.80;99.90;;;;;;5113588;28;20090;-73
2022/09/18 07:12:28;;;;;;;5.28;1.70;;;11.80;99.90;;;;;;5112085;28;20031;-74
2022/09/18 07:14:53;;;;;;;6.47;1.35;;;11.80;99.90;;;;;;5111864;28;20047;-72
2022/09/18 07:17:19;;;;;;;5.32;1.50;;;11.80;99.90;;;;;;5113401;28;20043;-72
2022/09/18 07:19:44;;;;;;;3.92;1.42;;;11.80;99.90;;;;;;5112156;28;20122;-72
2022/09/18 07:22:10;;;;;;;5.53;1.50;;;11.80;99.90;;;;;;5110460;28;20039;-76
2022/09/18 07:24:35;;;;;;;5.95;1.75;;;11.80;99.90;;;;;;5102287;28;20495;-74
2022/09/18 07:27:01;;;;;;;6.32;1.13;;;11.90;99.90;;;;;;5099778;28;20089;-72
2022/09/18 07:29:27;;;;;;;4.72;1.25;;;11.80;99.90;;;;;;5100605;28;20093;-73
2022/09/18 07:31:52;;;;;;;7.22;1.65;;;11.90;99.90;;;;;;5101930;28;20038;-73
2022/09/18 07:34:18;;;;;;;4.68;1.60;;;11.90;99.90;;;;;;5099205;28;20119;-73
2022/09/18 07:36:43;;;;;;;4.75;1.50;;;11.90;99.90;;;;;;5101330;28;20040;-73
2022/09/18 07:39:09;;;;;;;4.43;1.48;;;11.90;99.90;;;;;;5100423;28;20036;-73
2022/09/18 07:41:35;;;;;;;3.95;1.20;;;11.90;99.90;;;;;;5102168;28;20093;-73
2022/09/18 07:44:02;;;;;;;8.73;1.70;;;11.90;99.90;;;;;;5100157;28;20492;-72
2022/09/18 07:46:27;;;;;;;3.05;1.30;;;11.90;99.90;;;;;;5100522;28;20055;-72
2022/09/18 07:48:53;;;;;;;6.50;1.48;;;11.90;99.90;;;;;;5103498;28;20415;-72
2022/09/18 07:51:18;;;;;;;6.00;1.30;;;11.90;99.90;;;;;;5101624;28;20116;-72
2022/09/18 07:53:46;;;;;;;8.75;1.50;;;11.90;99.90;;;;;;5101873;28;20089;-77
2022/09/18 07:56:11;;;;;;;6.30;1.17;;;11.90;99.90;;;;;;5103117;28;20039;-73
2022/09/18 07:58:37;;;;;;;6.32;1.38;;;12.00;99.90;;;;;;5082924;28;20593;-73
2022/09/18 08:01:04;;;;;;;7.20;1.20;;;12.00;99.90;;;;;;5101228;28;20038;-73
2022/09/18 08:03:30;;;;;;;3.85;1.42;;;12.00;99.90;;;;;;5102967;28;20472;-72
2022/09/18 08:05:56;;;;;;;4.50;1.70;;;12.00;99.90;;;;;;5102398;28;20042;-72
2022/09/18 08:08:22;;;;;;;3.03;1.30;;;11.90;99.90;;;;;;5111295;28;20036;-73
2022/09/18 08:10:47;;;;;;;6.03;1.60;;;12.00;99.90;;;;;;5102678;28;20389;-72
2022/09/18 08:13:13;;;;;;;4.15;1.38;;;12.00;99.90;;;;;;5101290;28;20169;-73
2022/09/18 08:15:41;;;;;;;4.95;1.60;;;12.00;99.90;;;;;;5108477;28;20116;-72
2022/09/18 08:18:07;;;;;;;4.90;1.63;;;12.00;99.90;;;;;;5111424;28;20422;-72
2022/09/18 08:20:33;;;;;;;5.95;2.40;;;12.00;99.90;;;;;;5111085;28;20487;-74
2022/09/18 08:23:01;;;;;;;3.90;1.25;;;12.00;99.90;;;;;;5110923;28;20445;-72
2022/09/18 08:25:27;;;;;;;3.92;1.40;;;12.00;99.90;;;;;;5110887;28;20140;-73
2022/09/18 08:27:53;;;;;;;5.28;1.33;;;12.00;99.90;;;;;;5094083;28;20079;-72
2022/09/18 08:30:18;;;;;;;5.05;1.50;;;12.00;99.90;;;;;;5111014;28;20044;-73
2022/09/18 08:32:44;;;;;;;8.13;1.75;;;12.00;99.90;;;;;;5111203;28;20040;-72
2022/09/18 08:35:10;;;;;;;5.93;1.33;;;12.00;99.90;;;;;;5110931;28;20031;-73
2022/09/18 08:37:36;;;;;;;4.85;1.45;;;12.00;99.90;;;;;;5111252;28;20044;-73
2022/09/18 08:40:03;;;;;;;15.98;1.80;;;12.00;99.90;;;;;;5110893;28;20511;-74
2022/09/18 08:42:46;;;;;;;2.88;1.02;;;12.00;99.90;;;;;;5111232;28;20047;-72
2022/09/18 08:45:17;;;;;;;6.47;1.35;;;12.00;99.90;;;;;;5116296;28;20100;-72
2022/09/18 08:48:08;;;;;;;5.18;1.38;;;12.00;99.90;;;;;;5116198;27;20050;-72
2022/09/18 08:50:38;;;;;;;4.20;1.30;;;12.00;99.90;;;;;;5106588;28;20098;-72
2022/09/18 08:53:18;;;;;;;8.32;1.30;;;12.00;99.90;;;;;;5116056;28;20123;-73
2022/09/18 08:55:46;;;;;;;4.85;1.45;;;12.00;99.90;;;;;;5116117;27;20035;-73
2022/09/18 08:58:22;;;;;;;8.48;1.73;;;12.00;99.90;;;;;;5114922;28;20103;-74
2022/09/18 09:00:51;;;;;;;6.00;1.30;;;12.00;99.90;;;;;;5114976;28;20046;-72
2022/09/18 09:03:50;;;;;;;6.28;1.20;;;12.10;99.90;;;;;;5115454;28;20066;-71
2022/09/18 09:06:35;;;;;;;2.97;1.17;;;12.10;99.90;;;;;;5114756;28;20042;-73
2022/09/18 09:09:21;;;;;;;6.63;1.40;;;12.10;99.90;;;;;;5114956;28;20040;-72
2022/09/18 09:12:02;;;;;;;3.75;1.20;;;12.10;99.90;;;;;;5114836;28;20119;-72
2022/09/18 09:15:02;;;;;;;5.85;1.30;;;12.10;99.90;;;;;;5114320;28;20040;-71
2022/09/18 09:17:53;;;;;;;2.60;0.98;;;12.20;99.90;;;;;;5115773;28;20043;-72
2022/09/18 09:20:44;;;;;;;5.35;1.50;;;12.20;99.90;;;;;;5114812;28;20043;-72
2022/09/18 09:23:28;;;;;;;3.10;1.08;;;12.20;99.90;;;;;;5114029;28;20059;-72
2022/09/18 09:26:02;;;;;;;3.88;1.60;;;12.20;99.90;;;;;;5100334;28;20506;-71
2022/09/18 09:28:58;;;;;;;6.03;1.08;;;12.20;99.90;;;;;;5094648;28;20093;-72
2022/09/18 09:31:39;;;;;;;6.10;1.35;;;12.20;99.90;;;;;;5102710;28;20032;-72
2022/09/18 09:34:14;;;;;;;3.78;1.00;;;12.20;99.90;;;;;;5103694;28;20028;-72
2022/09/18 09:36:42;;;;;;;2.83;1.30;;;12.20;99.90;;;;;;5104901;28;20041;-72
2022/09/18 09:39:29;;;;;;;3.97;1.10;;;12.20;99.90;;;;;;5104609;28;20044;-71
2022/09/18 09:42:24;;;;;;;5.82;1.25;;;12.20;99.90;;;;;;5106087;28;20032;-71
2022/09/18 09:45:02;;;;;;;8.30;1.30;;;12.30;99.90;;;;;;5100151;28;20147;-72
2022/09/18 09:47:55;;;;;;;7.95;2.00;;;12.20;99.90;;;;;;5102321;28;20063;-71
2022/09/18 09:50:38;;;;;;;3.47;1.27;;;12.20;99.90;;;;;;5102323;28;20116;-73
2022/09/18 09:53:08;;;;;;;4.97;1.10;;;12.30;99.90;;;;;;5103985;28;20043;-72
2022/09/18 09:56:11;;;;;;;4.15;1.10;;;12.30;99.90;;;;;;5101126;28;20041;-72
2022/09/18 09:58:59;;;;;;;1.75;1.00;;;12.30;99.90;;;;;;5114419;28;20510;-72
2022/09/18 10:01:33;;;;;;;5.00;1.10;;;12.30;99.90;;;;;;5114908;27;20039;-72
2022/09/18 10:04:30;;;;;;;4.57;1.42;;;12.30;99.90;;;;;;5114613;28;20503;-72
2022/09/18 10:07:36;;;;;;;5.93;1.30;;;12.30;99.90;;;;;;5113556;28;20100;-71
2022/09/18 10:10:29;;;;;;;2.25;1.20;;;12.40;99.90;;;;;;5113278;28;20127;-73
2022/09/18 10:13:00;;;;;;;3.33;1.00;;;12.30;99.90;;;;;;5109222;28;20047;-72
2022/09/18 10:15:47;;;;;;;9.18;1.70;;;12.30;99.90;;;;;;5112290;28;20613;-72
2022/09/18 10:18:18;;;;;;;2.35;1.20;;;12.30;99.90;;;;;;5113818;28;20036;-72
2022/09/18 10:20:45;;;;;;;5.43;1.23;;;12.30;99.90;;;;;;5112868;28;20051;-73
2022/09/18 10:23:19;;;;;;;4.15;1.00;;;12.40;99.90;;;;;;5112523;28;20043;-72
2022/09/18 10:25:51;;;;;;;4.07;1.25;;;12.30;99.90;;;;;;5112137;28;20043;-72
2022/09/18 10:28:16;;;;;;;5.27;1.20;;;12.40;99.90;;;;;;5111973;28;20044;-74
2022/09/18 10:31:04;;;;;;;2.85;1.17;;;12.30;99.90;;;;;;5112038;28;20054;-73
2022/09/18 10:33:37;;;;;;;4.63;1.10;;;12.30;99.90;;;;;;5095785;28;20487;-73
2022/09/18 10:36:08;;;;;;;4.32;1.33;;;12.30;99.90;;;;;;5111971;28;20036;-71
2022/09/18 10:38:36;;;;;;;7.80;1.23;;;12.30;99.90;;;;;;5112267;28;20036;-71
2022/09/18 10:41:19;;;;;;;7.47;1.42;;;12.30;99.90;;;;;;5112512;28;20050;-71
2022/09/18 10:44:28;;;;;;;3.33;1.20;;;12.40;99.90;;;;;;5112194;28;20067;-73
2022/09/18 10:47:04;;;;;;;3.40;1.65;;;12.40;99.90;;;;;;5112299;28;20044;-71
2022/09/18 10:49:50;;;;;;;6.05;1.60;;;12.40;99.90;;;;;;5112314;28;20039;-72
2022/09/18 10:52:38;;;;;;;3.30;1.05;;;12.40;99.90;;;;;;5112373;28;20531;-74
2022/09/18 10:55:04;;;;;;;6.65;1.40;;;12.40;99.90;;;;;;5112391;28;20035;-71
2022/09/18 10:57:45;;;;;;;4.05;1.10;;;12.40;99.90;;;;;;5112276;28;20048;-71
2022/09/18 11:00:11;;;;;;;4.47;1.25;;;12.50;99.90;;;;;;5113352;28;20047;-71
2022/09/18 11:03:09;;;;;;;3.70;1.38;;;12.50;99.90;;;;;;5112191;28;20114;-72
2022/09/18 11:05:37;;;;;;;6.18;1.50;;;12.50;99.90;;;;;;5111503;28;20101;-72
2022/09/18 11:08:13;;;;;;;3.15;1.10;;;12.50;99.90;;;;;;5111427;28;20392;-71
2022/09/18 11:10:39;;;;;;;6.82;1.63;;;12.60;99.90;;;;;;5113609;28;20048;-74
2022/09/18 11:13:04;;;;;;;7.85;1.70;;;12.60;99.90;;;;;;5112037;28;20040;-72
2022/09/18 11:15:35;;;;;;;3.35;1.50;;;12.60;99.90;;;;;;5111664;28;20050;-72
2022/09/18 11:18:06;;;;;;;5.30;1.55;;;12.60;99.90;;;;;;5111850;28;20545;-71
2022/09/18 11:20:43;;;;;;;3.70;1.35;;;12.60;99.90;;;;;;5111675;28;20499;-71
2022/09/18 11:23:17;;;;;;;5.05;1.45;;;12.70;99.90;;;;;;5111561;28;20518;-71
2022/09/18 11:25:44;;;;;;;3.20;1.20;;;12.70;99.90;;;;;;5111629;28;20396;-72
2022/09/18 11:28:56;;;;;;;3.70;1.40;;;12.60;99.90;;;;;;5111750;28;20086;-71
2022/09/18 11:31:22;;;;;;;6.07;1.67;;;12.70;99.90;;;;;;5053193;28;20056;-72
2022/09/18 11:33:52;;;;;;;6.78;1.40;;;12.70;99.90;;;;;;5053052;28;20044;-71
2022/09/18 11:36:26;;;;;;;5.75;1.20;;;12.70;99.90;;;;;;5053304;28;20063;-72
2022/09/18 11:38:52;;;;;;;4.95;1.20;;;12.70;99.90;;;;;;5069648;28;20094;-72
2022/09/18 11:41:33;;;;;;;8.18;1.63;;;12.80;99.90;;;;;;5069470;28;20135;-72
2022/09/18 11:44:01;;;;;;;6.30;1.83;;;12.80;99.90;;;;;;5052527;28;20045;-71
2022/09/18 11:46:51;;;;;;;4.53;1.67;;;12.80;99.90;;;;;;5069570;28;20040;-72
2022/09/18 11:49:32;;;;;;;7.18;1.45;;;12.80;99.90;;;;;;5052958;28;20059;-71
2022/09/18 11:52:05;;;;;;;9.10;1.58;;;12.80;99.90;;;;;;5065882;28;20470;-70
2022/09/18 11:54:45;;;;;;;4.72;1.25;;;12.80;99.90;;;;;;5069309;28;20521;-71
2022/09/18 11:57:18;;;;;;;4.38;1.45;;;12.90;99.90;;;;;;5069479;28;20500;-71
2022/09/18 11:59:46;;;;;;;;;;;12.90;99.90;;;;;;5069857;28;20132;-70
2022/09/18 12:02:39;;;;;;;5.13;1.73;;;13.00;99.90;;;;;;5068957;28;20457;-70
2022/09/18 12:05:43;;;;;;;6.32;1.50;;;12.90;99.90;;;;;;5041943;28;20072;-69
2022/09/18 12:08:23;;;;;;;9.15;1.52;;;13.00;99.90;;;;;;5096058;28;20101;-70
2022/09/18 12:11:08;;;;;;;6.55;1.33;;;13.00;99.90;;;;;;5102253;28;20046;-69
2022/09/18 12:14:04;;;;;;;5.80;1.58;;;13.10;99.90;;;;;;5101585;28;21138;-70
2022/09/18 12:16:49;;;;;;;10.02;1.73;;;13.10;99.90;;;;;;5101628;28;20032;-70
2022/09/18 12:19:20;;;;;;;4.50;1.17;;;13.10;99.90;;;;;;5102437;28;20110;-70
2022/09/18 12:22:09;;;;;;;9.05;1.60;;;13.20;99.90;;;;;;5101548;28;20028;-71
2022/09/18 12:24:34;;;;;;;5.70;1.50;;;13.20;99.90;;;;;;5102077;28;20039;-71
2022/09/18 12:27:06;;;;;;;5.97;1.30;;;13.30;99.90;;;;;;5100281;28;20044;-70
2022/09/18 12:29:51;;;;;;;;;;;13.30;99.90;;;;;;5101149;28;20130;-70
2022/09/18 12:32:46;;;;;;;3.95;1.40;;;13.30;99.90;;;;;;5102534;28;19930;-70
2022/09/18 12:35:42;;;;;;;5.05;1.33;;;13.40;99.90;;;;;;5101674;28;20561;-70
2022/09/18 12:38:22;;;;;;;6.38;1.48;;;13.40;99.90;;;;;;5101663;28;20047;-69
2022/09/18 12:41:32;;;;;;;7.47;1.70;;;13.40;99.90;;;;;;5101356;28;20526;-69
2022/09/18 12:44:18;;;;;;;6.95;2.00;;;13.50;99.90;;;;;;5105324;28;20534;-69
2022/09/18 12:47:11;;;;;;;8.02;1.70;;;13.50;99.90;;;;;;5111870;28;20402;-69
2022/09/18 12:49:46;;;;;;;5.75;1.58;;;13.50;99.90;;;;;;5110131;28;20461;-70
2022/09/18 12:52:49;;;;;;;6.25;1.20;;;13.50;99.90;;;;;;5111812;28;20484;-69
2022/09/18 12:55:44;;;;;;;7.65;1.40;;;13.60;99.90;;;;;;5111553;28;20499;-70
2022/09/18 12:58:29;;;;;;;10.32;2.05;;;13.50;99.90;;;;;;5110316;28;20048;-69
2022/09/18 13:00:59;;;;;;;8.48;2.03;;;13.60;99.90;;;;;;5111751;28;20488;-68
2022/09/18 13:03:32;;;;;;;14.30;1.95;;;13.60;99.90;;;;;;5110328;28;20396;-69
2022/09/18 13:06:03;;;;;;;4.25;1.15;;;13.60;99.90;;;;;;5111507;28;20114;-70
2022/09/18 13:08:44;;;;;;;13.05;2.13;;;13.60;99.90;;;;;;5111646;28;20189;-69
2022/09/18 13:11:18;;;;;;;7.40;1.73;;;13.60;99.90;;;;;;5110358;28;20084;-69
2022/09/18 13:13:52;;;;;;;8.35;1.70;;;13.60;99.90;;;;;;5111399;28;20449;-71
2022/09/18 13:17:16;;;;;;;6.28;1.60;;;13.60;99.90;;;;;;5111695;28;20553;-69